^^
Station Historical Data
Daily Summary for June 27, 2017 Units:  English    Metric   Both
« Previous Day
Next Day »
Daily Weekly Monthly Yearly Custom
  High: Low: Average:
Temperature: 77.9 °F 58.6 °F 67.6 °F
Dew Point: 61.6 °F 51.1 °F 55.7 °F
Humidity: 94% 43% 68%
Wind Speed: 7.0mph 0.0mph 1.5mph
Wind Gust: 14.0mph - -
Wind- - SSW
Pressure: 30.03 in 29.91 in -
Precipitation: 0.15 in    
Historical Graphs
 
 
Tabular Data for June 27, 2017
Time Temperature Dew Point Pressure Wind Wind Speed Wind Gust Humidity Rainfall Rate (Hourly) Conditions
00:00 63.9 °F 57.3 °F 29.99 in Calm     79% 0.00 in CLR
00:15 63.0 °F 56.0 °F 29.99 in Calm     78% 0.00 in CLR
00:30 62.3 °F 56.1 °F 29.99 in Calm     80% 0.00 in CLR
00:45 62.6 °F 55.6 °F 29.99 in Calm     78% 0.00 in CLR
01:00 61.8 °F 55.9 °F 29.98 in Calm     81% 0.00 in CLR
02:15 65.6 °F 52.7 °F 30.01 in North 2.0 mph 5.0 mph 63% 0.00 in CLR
02:30 65.7 °F 52.3 °F 30.01 in NNW 2.0 mph 8.0 mph 62% 0.00 in CLR
02:45 65.5 °F 53.4 °F 30.01 in NNE 3.0 mph 10.0 mph 65% 0.00 in CLR
03:00 65.0 °F 53.8 °F 30.00 in NNW 1.0 mph 9.0 mph 67% 0.00 in CLR
03:15 64.3 °F 53.5 °F 29.99 in NNW 1.0 mph 9.0 mph 68% 0.00 in BKN
03:30 63.8 °F 53.1 °F 29.99 in WSW 1.0 mph 3.0 mph 68% 0.00 in BKN
03:45 63.7 °F 53.3 °F 29.98 in Calm   3.0 mph 69% 0.00 in BKN
04:00 63.4 °F 53.0 °F 29.98 in Calm     69% 0.00 in BKN
04:15 63.1 °F 53.9 °F 29.98 in Calm   2.0 mph 72% 0.00 in BKN
04:30 62.9 °F 53.4 °F 30.00 in Calm   2.0 mph 71% 0.00 in BKN
05:00 62.1 °F 54.5 °F 30.02 in Calm   3.0 mph 76% 0.00 in BKN
05:15 60.8 °F 55.6 °F 30.02 in Calm   1.0 mph 83% 0.01 in RA
05:30 59.9 °F 56.3 °F 30.02 in Calm     88% 0.02 in RA
05:45 59.7 °F 56.8 °F 30.03 in Calm   1.0 mph 90% 0.03 in RA
06:00 59.3 °F 56.7 °F 30.02 in Calm   1.0 mph 91% 0.06 in RA
06:15 59.2 °F 56.9 °F 30.01 in Calm   1.0 mph 92% 0.02 in RA
06:30 58.9 °F 56.9 °F 30.01 in Calm   2.0 mph 93% 0.01 in RA
06:45 58.6 °F 56.6 °F 30.01 in Calm   2.0 mph 93% 0.00 in BKN
07:00 58.6 °F 56.9 °F 30.01 in Calm   2.0 mph 94% 0.00 in BKN
07:15 58.8 °F 57.1 °F 30.01 in NW 1.0 mph 2.0 mph 94% 0.00 in -RA
07:30 59.2 °F 57.5 °F 30.01 in Calm   1.0 mph 94% 0.00 in -RA
07:45 59.9 °F 58.1 °F 30.01 in Calm   2.0 mph 94% 0.00 in -RA
08:00 60.5 °F 58.8 °F 30.01 in Calm   3.0 mph 94% 0.00 in -RA
08:15 61.7 °F 59.6 °F 30.01 in Calm   3.0 mph 93% 0.00 in SCT
08:30 62.9 °F 59.9 °F 30.01 in Calm   1.0 mph 90% 0.00 in SCT
08:45 64.6 °F 60.3 °F 30.01 in Calm   1.0 mph 86% 0.00 in SCT
09:00 66.0 °F 60.0 °F 30.01 in Calm   1.0 mph 81% 0.00 in SCT
09:15 66.2 °F 60.2 °F 30.01 in Calm   3.0 mph 81% 0.00 in SCT
09:30 66.0 °F 59.7 °F 30.01 in WSW 1.0 mph 3.0 mph 80% 0.00 in SCT
09:45 65.2 °F 59.9 °F 30.02 in WSW 1.0 mph 3.0 mph 83% 0.00 in SCT
10:00 66.1 °F 60.1 °F 30.01 in SW 2.0 mph 5.0 mph 81% 0.00 in SCT
10:15 65.5 °F 60.5 °F 30.01 in SSW 1.0 mph 6.0 mph 84% 0.00 in BKN
10:30 66.0 °F 61.0 °F 30.00 in Calm   6.0 mph 84% 0.00 in BKN
10:45 67.1 °F 60.4 °F 30.00 in SSW 2.0 mph 8.0 mph 79% 0.00 in BKN
11:00 67.9 °F 61.1 °F 30.00 in South 1.0 mph 8.0 mph 79% 0.00 in BKN
11:15 68.0 °F 60.6 °F 30.00 in WSW 3.0 mph 8.0 mph 77% 0.00 in SCT
11:30 69.1 °F 60.5 °F 30.00 in SW 1.0 mph 8.0 mph 74% 0.00 in SCT
11:45 71.1 °F 61.6 °F 29.99 in SW 3.0 mph 8.0 mph 72% 0.00 in SCT
12:15 72.3 °F 61.1 °F 29.98 in SW 3.0 mph 9.0 mph 68% 0.00 in BKN
12:30 72.5 °F 60.5 °F 29.98 in SW 5.0 mph 10.0 mph 66% 0.00 in BKN
12:45 72.1 °F 59.3 °F 29.97 in SSW 7.0 mph 12.0 mph 64% 0.00 in BKN
13:00 73.3 °F 59.1 °F 29.97 in SW 1.0 mph 9.0 mph 61% 0.00 in BKN
13:15 73.7 °F 59.9 °F 29.97 in South 1.0 mph 12.0 mph 62% 0.00 in BKN
13:30 74.0 °F 58.3 °F 29.95 in SW 2.0 mph 12.0 mph 58% 0.00 in BKN
13:45 74.5 °F 58.3 °F 29.95 in SW 2.0 mph 10.0 mph 57% 0.00 in BKN
14:00 74.8 °F 58.1 °F 29.94 in SW 2.0 mph 10.0 mph 56% 0.00 in BKN
14:15 74.5 °F 57.3 °F 29.94 in SW 2.0 mph 12.0 mph 55% 0.00 in SCT
14:30 75.5 °F 56.6 °F 29.93 in SSW 5.0 mph 12.0 mph 52% 0.00 in SCT
14:45 75.9 °F 55.9 °F 29.93 in SSW 6.0 mph 12.0 mph 50% 0.00 in SCT
15:00 75.5 °F 55.6 °F 29.93 in SSW 6.0 mph 10.0 mph 50% 0.00 in SCT
15:15 76.5 °F 55.3 °F 29.92 in South 2.0 mph 13.0 mph 48% 0.00 in SCT
15:30 76.7 °F 53.7 °F 29.92 in SSW 6.0 mph 12.0 mph 45% 0.00 in SCT
15:45 77.0 °F 52.8 °F 29.93 in SW 7.0 mph 14.0 mph 43% 0.00 in SCT
16:00 76.4 °F 53.5 °F 29.92 in SW 5.0 mph 14.0 mph 45% 0.00 in SCT
16:15 75.8 °F 51.7 °F 29.92 in SSW 3.0 mph 12.0 mph 43% 0.00 in BKN
16:30 75.7 °F 54.1 °F 29.92 in SSW 2.0 mph 13.0 mph 47% 0.00 in BKN
16:45 77.0 °F 53.5 °F 29.91 in SW 3.0 mph 12.0 mph 44% 0.00 in BKN
17:00 77.9 °F 54.2 °F 29.92 in WSW 2.0 mph 12.0 mph 44% 0.00 in BKN
17:15 77.0 °F 54.0 °F 29.92 in SSW 3.0 mph 12.0 mph 45% 0.00 in SCT
17:30 74.4 °F 52.9 °F 29.93 in SSE 2.0 mph 14.0 mph 47% 0.00 in SCT
17:45 73.3 °F 52.4 °F 29.93 in WSW 1.0 mph 12.0 mph 48% 0.00 in SCT
18:00 73.5 °F 53.2 °F 29.93 in SSW 3.0 mph 7.0 mph 49% 0.00 in SCT
18:15 73.4 °F 52.5 °F 29.93 in SSW 3.0 mph 12.0 mph 48% 0.00 in BKN
18:30 72.6 °F 52.3 °F 29.93 in SW 2.0 mph 12.0 mph 49% 0.00 in BKN
18:45 71.9 °F 51.1 °F 29.93 in SSW 3.0 mph 9.0 mph 48% 0.00 in BKN
19:00 71.3 °F 51.7 °F 29.94 in South 3.0 mph 8.0 mph 50% 0.00 in BKN
19:15 71.4 °F 52.3 °F 29.94 in SSW 5.0 mph 12.0 mph 51% 0.00 in SCT
19:30 72.0 °F 52.9 °F 29.94 in WSW 3.0 mph 9.0 mph 51% 0.00 in SCT
19:45 70.9 °F 52.9 °F 29.95 in South 2.0 mph 7.0 mph 53% 0.00 in SCT
20:00 70.5 °F 53.6 °F 29.96 in South 1.0 mph 8.0 mph 55% 0.00 in SCT
20:15 70.2 °F 53.8 °F 29.96 in SSE 2.0 mph 8.0 mph 56% 0.00 in SCT
20:30 70.0 °F 53.6 °F 29.96 in SSW 1.0 mph 6.0 mph 56% 0.00 in SCT
20:45 69.7 °F 53.8 °F 29.96 in Calm   7.0 mph 57% 0.00 in SCT
21:00 69.0 °F 54.1 °F 29.96 in Calm   2.0 mph 59% 0.00 in SCT
21:15 68.4 °F 53.5 °F 29.97 in NE 2.0 mph 6.0 mph 59% 0.00 in SCT
21:30 67.8 °F 52.5 °F 29.98 in Calm   7.0 mph 58% 0.00 in SCT
21:45 66.9 °F 52.6 °F 29.98 in ENE 1.0 mph 4.0 mph 60% 0.00 in SCT
22:00 66.1 °F 52.3 °F 29.98 in Calm   3.0 mph 61% 0.00 in SCT
22:15 65.4 °F 52.9 °F 29.98 in Calm   1.0 mph 64% 0.00 in FEW
22:30 64.2 °F 52.6 °F 29.99 in Calm   1.0 mph 66% 0.00 in FEW
22:45 63.2 °F 52.4 °F 29.99 in Calm   1.0 mph 68% 0.00 in FEW
23:00 61.9 °F 52.0 °F 30.00 in Calm     70% 0.00 in FEW
23:15 60.6 °F 52.3 °F 30.01 in Calm     74% 0.00 in CLR
23:30 59.9 °F 52.7 °F 30.01 in Calm     77% 0.00 in CLR
23:45 59.2 °F 53.0 °F 30.01 in Calm     80% 0.00 in CLR
TarryTown NY Weather
Compliments of Weather Underground - 1.5 mb